createdAt,value
2022-09-27T00:01:34.253Z,9.47
2022-09-27T00:04:39.326Z,9.46
2022-09-27T00:07:43.117Z,9.51
2022-09-27T00:10:46.699Z,9.49
2022-09-27T00:13:50.404Z,9.53
2022-09-27T00:16:54.134Z,9.54
2022-09-27T00:20:01.195Z,9.56
2022-09-27T00:23:04.880Z,9.57
2022-09-27T00:26:12.409Z,9.54
2022-09-27T00:29:18.245Z,9.57
2022-09-27T00:32:22.009Z,9.56
2022-09-27T00:35:27.194Z,9.57
2022-09-27T00:38:30.824Z,9.55
2022-09-27T00:41:37.572Z,9.58
2022-09-27T00:45:03.896Z,9.56
2022-09-27T00:48:08.692Z,9.58
2022-09-27T00:51:13.795Z,9.59
2022-09-27T00:54:21.334Z,9.60
2022-09-27T00:57:26.469Z,9.59
2022-09-27T01:00:30.252Z,9.60
2022-09-27T01:03:43.906Z,9.61
2022-09-27T01:06:50.263Z,9.65
2022-09-27T01:09:54.112Z,9.69
2022-09-27T01:13:13.625Z,9.67
2022-09-27T01:16:30.408Z,9.68
2022-09-27T01:20:19.539Z,9.69
2022-09-27T01:24:07.868Z,9.71
2022-09-27T01:28:00.248Z,9.71
2022-09-27T01:31:16.883Z,9.70
2022-09-27T01:34:31.835Z,9.71
2022-09-27T01:37:47.390Z,9.73
2022-09-27T01:41:01.843Z,9.71
2022-09-27T01:44:13.964Z,9.68
2022-09-27T01:47:22.945Z,9.63
2022-09-27T01:50:36.331Z,9.63
2022-09-27T01:53:45.533Z,9.59
2022-09-27T01:56:54.662Z,9.58
2022-09-27T02:00:04.177Z,9.59
2022-09-27T02:03:15.835Z,9.57
2022-09-27T02:06:24.975Z,9.58
2022-09-27T02:09:36.791Z,9.57
2022-09-27T02:12:51.735Z,9.56
2022-09-27T02:16:08.031Z,9.58
2022-09-27T02:19:28.400Z,9.57
2022-09-27T02:22:37.637Z,9.56
2022-09-27T02:25:50.498Z,9.56
2022-09-27T02:29:07.002Z,9.56
2022-09-27T02:32:10.662Z,9.54
2022-09-27T02:35:22.247Z,9.53
2022-09-27T02:38:26.004Z,9.53
2022-09-27T02:41:29.714Z,9.50
2022-09-27T02:44:34.131Z,9.48
2022-09-27T02:47:58.842Z,9.44
2022-09-27T02:51:39.257Z,9.40
2022-09-27T02:54:58.440Z,9.37
2022-09-27T02:58:22.051Z,9.34
2022-09-27T03:01:37.266Z,9.30
2022-09-27T03:04:49.076Z,9.24
2022-09-27T03:07:54.499Z,9.27
2022-09-27T03:10:58.202Z,9.24
2022-09-27T03:14:08.681Z,9.15
2022-09-27T03:17:12.963Z,9.13
2022-09-27T03:20:17.996Z,9.12
2022-09-27T03:23:23.135Z,9.09
2022-09-27T03:26:27.493Z,9.05
2022-09-27T03:29:32.081Z,9.03
2022-09-27T03:32:36.013Z,9.02
2022-09-27T03:35:39.892Z,9.01
2022-09-27T03:38:44.977Z,8.99
2022-09-27T03:41:48.610Z,9.00
2022-09-27T03:44:52.463Z,9.01
2022-09-27T03:47:56.253Z,8.95
2022-09-27T03:51:00.095Z,8.97
2022-09-27T03:54:05.427Z,8.94
2022-09-27T03:57:09.394Z,8.95
2022-09-27T04:00:15.029Z,8.96
2022-09-27T04:03:19.506Z,8.93
2022-09-27T04:06:24.004Z,8.96
2022-09-27T04:09:29.033Z,8.93
2022-09-27T04:12:33.189Z,8.94
2022-09-27T04:15:37.693Z,8.90
2022-09-27T04:18:41.298Z,8.87
2022-09-27T04:21:44.995Z,8.84
2022-09-27T04:24:50.026Z,8.86
2022-09-27T04:27:54.935Z,8.83
2022-09-27T04:30:59.525Z,8.84
2022-09-27T04:34:03.209Z,8.85
2022-09-27T04:37:06.078Z,8.88
2022-09-27T04:40:11.560Z,8.87
2022-09-27T04:43:15.196Z,8.90
2022-09-27T04:46:19.151Z,8.91
2022-09-27T04:49:22.965Z,8.90
2022-09-27T04:52:26.566Z,8.91
2022-09-27T04:55:31.708Z,8.93
2022-09-27T04:58:35.958Z,8.92
2022-09-27T05:01:40.263Z,8.95
2022-09-27T05:04:43.989Z,8.92
2022-09-27T05:07:47.695Z,8.95
2022-09-27T05:10:52.836Z,8.93
2022-09-27T05:13:56.873Z,8.94
2022-09-27T05:17:00.595Z,8.88
2022-09-27T05:20:05.326Z,8.84
2022-09-27T05:23:08.937Z,8.77
2022-09-27T05:26:14.094Z,8.74
2022-09-27T05:29:17.718Z,8.67
2022-09-27T05:32:21.508Z,8.63
2022-09-27T05:35:54.489Z,8.62
2022-09-27T05:38:58.257Z,8.65
2022-09-27T05:42:04.922Z,8.61
2022-09-27T05:45:09.627Z,8.61
2022-09-27T05:48:14.581Z,8.54
2022-09-27T05:51:19.375Z,8.51
2022-09-27T05:54:22.942Z,8.52
2022-09-27T05:57:27.971Z,8.56
2022-09-27T06:00:32.602Z,8.56
2022-09-27T06:03:37.091Z,8.60
2022-09-27T06:06:40.887Z,8.62
2022-09-27T06:09:45.251Z,8.68
2022-09-27T06:12:50.515Z,8.66
2022-09-27T06:15:55.011Z,8.65
2022-09-27T06:18:59.093Z,8.73
2022-09-27T06:22:02.750Z,8.78
2022-09-27T06:25:07.943Z,8.87
2022-09-27T06:28:14.187Z,8.82
2022-09-27T06:31:18.117Z,8.83
2022-09-27T06:34:21.842Z,8.78
2022-09-27T06:37:27.653Z,8.79
2022-09-27T06:40:31.322Z,8.81
2022-09-27T06:43:37.062Z,8.83
2022-09-27T06:46:41.381Z,8.90
2022-09-27T06:49:45.156Z,8.95
2022-09-27T06:52:49.875Z,8.95
2022-09-27T06:55:53.900Z,9.14
2022-09-27T06:59:16.244Z,9.14
2022-09-27T07:02:20.290Z,9.15
2022-09-27T07:05:24.091Z,9.13
2022-09-27T07:08:28.819Z,9.12
2022-09-27T07:11:34.102Z,9.19
2022-09-27T07:14:40.124Z,9.26
2022-09-27T07:17:43.848Z,9.25
2022-09-27T07:20:47.512Z,9.31
2022-09-27T07:23:51.507Z,9.39
2022-09-27T07:26:55.238Z,9.38
2022-09-27T07:30:00.278Z,9.26
2022-09-27T07:33:06.346Z,9.24
2022-09-27T07:36:12.451Z,9.24
2022-09-27T07:39:16.387Z,9.28
2022-09-27T07:42:20.610Z,9.33
2022-09-27T07:45:26.509Z,9.46
2022-09-27T07:48:30.258Z,9.42
2022-09-27T07:51:33.915Z,9.42
2022-09-27T07:54:37.515Z,9.47
2022-09-27T07:57:41.879Z,9.75
2022-09-27T08:00:47.040Z,9.82
2022-09-27T08:03:50.745Z,9.87
2022-09-27T08:06:54.403Z,9.74
2022-09-27T08:09:58.679Z,9.83
2022-09-27T08:13:04.896Z,10.03
2022-09-27T08:16:11.211Z,9.94
2022-09-27T08:19:15.265Z,9.92
2022-09-27T08:22:21.298Z,10.09
2022-09-27T08:25:24.991Z,10.08
2022-09-27T08:28:29.124Z,10.17
2022-09-27T08:31:34.278Z,10.37
2022-09-27T08:34:38.596Z,10.20
2022-09-27T08:37:42.307Z,10.22
2022-09-27T08:40:55.995Z,10.17
2022-09-27T08:44:14.218Z,10.23
2022-09-27T08:47:26.587Z,10.31
2022-09-27T08:50:39.023Z,10.29
2022-09-27T08:53:52.652Z,10.22
2022-09-27T08:57:03.675Z,10.45
2022-09-27T09:00:13.203Z,10.63
2022-09-27T09:03:22.851Z,10.55
2022-09-27T09:06:31.166Z,10.64
2022-09-27T09:09:46.018Z,10.62
2022-09-27T09:12:58.143Z,10.63
2022-09-27T09:16:13.917Z,10.75
2022-09-27T09:19:41.668Z,10.84
2022-09-27T09:23:33.628Z,10.93
2022-09-27T09:26:47.044Z,10.89
2022-09-27T09:30:23.364Z,10.70
2022-09-27T09:33:35.280Z,10.67
2022-09-27T09:36:47.737Z,10.49
2022-09-27T09:39:59.634Z,10.38
2022-09-27T09:43:12.331Z,10.25
2022-09-27T09:46:23.715Z,10.21
2022-09-27T09:49:33.324Z,10.15
2022-09-27T09:52:46.899Z,10.22
2022-09-27T09:55:57.867Z,10.07
2022-09-27T09:59:05.987Z,10.08
2022-09-27T10:02:33.440Z,9.94
2022-09-27T10:05:37.522Z,9.88
2022-09-27T10:08:43.731Z,9.78
2022-09-27T10:11:48.259Z,9.72
2022-09-27T10:14:55.227Z,9.78
2022-09-27T10:18:01.208Z,9.90
2022-09-27T10:21:14.783Z,10.11
2022-09-27T10:24:20.491Z,10.21
2022-09-27T10:27:26.067Z,10.22
2022-09-27T10:30:32.644Z,10.13
2022-09-27T10:33:40.712Z,10.05
2022-09-27T10:36:44.366Z,10.07
2022-09-27T10:39:52.982Z,9.98
2022-09-27T10:42:56.888Z,9.96
2022-09-27T10:46:17.546Z,9.91
2022-09-27T10:49:26.868Z,9.93
2022-09-27T10:52:30.827Z,10.01
2022-09-27T10:55:39.868Z,10.15
2022-09-27T10:58:47.896Z,10.02
2022-09-27T11:01:53.075Z,10.18
2022-09-27T11:05:15.419Z,10.07
2022-09-27T11:08:30.116Z,10.16
2022-09-27T11:11:35.367Z,10.05
2022-09-27T11:14:39.263Z,10.06
2022-09-27T11:17:57.799Z,10.00
2022-09-27T11:21:19.427Z,10.05
2022-09-27T11:24:54.211Z,10.05
2022-09-27T11:28:11.386Z,10.07
2022-09-27T11:31:29.743Z,10.09
2022-09-27T11:34:56.486Z,10.11
2022-09-27T11:38:34.602Z,10.12
2022-09-27T11:42:02.792Z,10.06
2022-09-27T11:46:10.423Z,10.25
2022-09-27T11:49:36.434Z,10.21
2022-09-27T11:52:56.917Z,10.33
2022-09-27T11:56:17.094Z,10.23
2022-09-27T12:00:05.737Z,10.26
2022-09-27T12:03:56.266Z,10.47
2022-09-27T12:07:17.010Z,10.39
2022-09-27T12:10:21.800Z,10.37
2022-09-27T12:13:37.912Z,10.43
2022-09-27T12:16:44.056Z,10.38
2022-09-27T12:19:54.557Z,10.44
2022-09-27T12:23:04.129Z,10.40
2022-09-27T12:26:13.738Z,10.46
2022-09-27T12:29:26.263Z,10.41
2022-09-27T12:32:38.778Z,10.69
2022-09-27T12:35:50.055Z,10.79
2022-09-27T12:39:03.047Z,10.79
2022-09-27T12:42:18.340Z,10.84
2022-09-27T12:45:57.509Z,10.67
2022-09-27T12:49:13.403Z,10.79
2022-09-27T12:52:25.693Z,10.80
2022-09-27T12:56:07.112Z,10.78
2022-09-27T12:59:48.183Z,10.74
2022-09-27T13:03:34.174Z,10.79
2022-09-27T13:06:59.485Z,10.85
2022-09-27T13:10:33.778Z,10.85
2022-09-27T13:13:40.034Z,11.01
2022-09-27T13:16:46.211Z,10.99
2022-09-27T13:19:49.775Z,10.84
2022-09-27T13:22:53.437Z,10.73
2022-09-27T13:26:03.004Z,10.95
2022-09-27T13:29:39.451Z,10.92
2022-09-27T13:33:21.643Z,10.91
2022-09-27T13:36:34.054Z,10.90
2022-09-27T13:39:39.227Z,10.92
2022-09-27T13:42:55.590Z,10.84
2022-09-27T13:46:03.094Z,10.93
2022-09-27T13:49:19.907Z,11.04
2022-09-27T13:52:34.032Z,11.02
2022-09-27T13:55:46.007Z,11.03
2022-09-27T13:58:55.963Z,10.83
2022-09-27T14:02:13.674Z,10.70
2022-09-27T14:05:25.340Z,10.66
2022-09-27T14:08:35.093Z,10.63
2022-09-27T14:11:44.278Z,10.66
2022-09-27T14:14:52.395Z,10.70
2022-09-27T14:17:58.694Z,10.57
2022-09-27T14:21:23.909Z,10.56
2022-09-27T14:24:31.715Z,10.41
2022-09-27T14:27:39.378Z,10.35
2022-09-27T14:30:46.680Z,10.44
2022-09-27T14:33:52.386Z,10.62
2022-09-27T14:37:25.974Z,10.37
2022-09-27T14:40:30.827Z,10.39
2022-09-27T14:43:37.847Z,10.55
2022-09-27T14:46:43.072Z,10.55
2022-09-27T14:49:51.236Z,10.52
2022-09-27T14:52:57.553Z,10.51
2022-09-27T14:56:02.945Z,10.52
2022-09-27T14:59:16.594Z,10.61
2022-09-27T15:02:26.456Z,10.59
2022-09-27T15:05:33.667Z,10.62
2022-09-27T15:08:39.438Z,10.73
2022-09-27T15:11:46.091Z,10.69
2022-09-27T15:14:54.135Z,10.75
2022-09-27T15:18:00.566Z,10.73
2022-09-27T15:21:06.512Z,10.70
2022-09-27T15:24:41.046Z,10.72
2022-09-27T15:27:53.942Z,10.75
2022-09-27T15:30:59.434Z,10.66
2022-09-27T15:34:07.151Z,10.77
2022-09-27T15:37:29.103Z,10.75
2022-09-27T15:41:14.271Z,10.73
2022-09-27T15:44:48.214Z,10.90
2022-09-27T15:47:52.222Z,10.84
2022-09-27T15:50:57.307Z,10.93
2022-09-27T15:54:00.862Z,10.88
2022-09-27T15:57:07.192Z,10.95
2022-09-27T16:00:17.843Z,10.96
2022-09-27T16:03:21.623Z,10.95
2022-09-27T16:06:28.870Z,10.81
2022-09-27T16:09:32.740Z,10.81
2022-09-27T16:12:36.250Z,10.76
2022-09-27T16:15:40.128Z,10.78
2022-09-27T16:18:44.290Z,10.71
2022-09-27T16:21:49.740Z,10.57
2022-09-27T16:24:53.759Z,10.41
2022-09-27T16:28:00.333Z,10.31
2022-09-27T16:31:06.657Z,10.24
2022-09-27T16:34:11.206Z,10.03
2022-09-27T16:37:17.821Z,9.74
2022-09-27T16:40:21.446Z,9.62
2022-09-27T16:43:29.061Z,9.60
2022-09-27T16:46:34.622Z,9.58
2022-09-27T16:49:55.675Z,9.63
2022-09-27T16:53:00.989Z,9.65
2022-09-27T16:56:05.083Z,9.59
2022-09-27T16:59:09.038Z,9.55
2022-09-27T17:02:12.694Z,9.50
2022-09-27T17:05:20.184Z,9.43
2022-09-27T17:08:28.927Z,9.34
2022-09-27T17:11:34.007Z,9.19
2022-09-27T17:14:37.584Z,9.03
2022-09-27T17:17:41.242Z,8.91
2022-09-27T17:20:44.959Z,8.82
2022-09-27T17:23:50.329Z,8.73
2022-09-27T17:26:55.413Z,8.66
2022-09-27T17:29:59.160Z,8.61
2022-09-27T17:33:02.774Z,8.48
2022-09-27T17:36:08.379Z,8.40
2022-09-27T17:39:15.426Z,8.32
2022-09-27T17:42:20.065Z,8.25
2022-09-27T17:45:31.691Z,8.21
2022-09-27T17:48:53.723Z,8.10
2022-09-27T17:51:57.554Z,8.07
2022-09-27T17:55:03.489Z,8.04
2022-09-27T17:58:07.252Z,8.00
2022-09-27T18:01:10.947Z,7.98
2022-09-27T18:04:17.476Z,7.94
2022-09-27T18:07:21.296Z,7.92
2022-09-27T18:10:27.560Z,7.85
2022-09-27T18:13:37.754Z,7.86
2022-09-27T18:16:44.262Z,7.83
2022-09-27T18:23:12.942Z,7.76
2022-09-27T18:26:23.785Z,7.73
2022-09-27T18:29:28.845Z,7.67
2022-09-27T18:32:32.707Z,7.70
2022-09-27T18:35:36.700Z,7.65
2022-09-27T18:38:41.351Z,7.66
2022-09-27T18:41:48.690Z,7.71
2022-09-27T18:44:52.308Z,7.58
2022-09-27T18:47:57.460Z,7.56
2022-09-27T18:51:01.227Z,7.51
2022-09-27T18:54:08.223Z,7.43
2022-09-27T18:57:13.253Z,7.42
2022-09-27T19:00:17.359Z,7.39
2022-09-27T19:03:21.001Z,7.31
2022-09-27T19:06:25.334Z,7.31
2022-09-27T19:09:29.134Z,7.25
2022-09-27T19:12:34.159Z,7.24
2022-09-27T19:15:37.908Z,7.26
2022-09-27T19:18:41.742Z,7.20
2022-09-27T19:21:45.914Z,7.24
2022-09-27T19:24:50.531Z,7.21
2022-09-27T19:27:56.067Z,7.10
2022-09-27T19:30:59.781Z,7.09
2022-09-27T19:34:03.783Z,7.02
2022-09-27T19:37:07.630Z,6.97
2022-09-27T19:40:11.357Z,6.96
2022-09-27T19:43:16.222Z,6.92
2022-09-27T19:46:21.504Z,6.92
2022-09-27T19:49:26.192Z,6.90
2022-09-27T19:52:29.805Z,6.88
2022-09-27T19:55:33.468Z,6.86
2022-09-27T19:58:40.858Z,6.83
2022-09-27T20:01:44.550Z,6.81
2022-09-27T20:04:48.223Z,6.82
2022-09-27T20:07:53.996Z,6.78
2022-09-27T20:11:05.171Z,6.76
2022-09-27T20:14:11.481Z,6.72
2022-09-27T20:17:15.066Z,6.72
2022-09-27T20:20:18.736Z,6.69
2022-09-27T20:23:24.944Z,6.67
2022-09-27T20:26:31.555Z,6.64
2022-09-27T20:29:36.540Z,6.63
2022-09-27T20:32:40.123Z,6.68
2022-09-27T20:35:52.080Z,6.66
2022-09-27T20:39:02.219Z,6.64
2022-09-27T20:42:07.700Z,6.60
2022-09-27T20:45:12.792Z,6.58
2022-09-27T20:48:16.385Z,6.58
2022-09-27T20:51:20.348Z,6.54
2022-09-27T20:54:23.909Z,6.51
2022-09-27T20:57:46.372Z,6.45
2022-09-27T21:00:53.449Z,6.47
2022-09-27T21:03:59.335Z,6.41
2022-09-27T21:07:03.947Z,6.35
2022-09-27T21:10:09.423Z,6.39
2022-09-27T21:13:12.930Z,6.33
2022-09-27T21:16:20.512Z,6.29
2022-09-27T21:19:24.068Z,6.27
2022-09-27T21:22:27.630Z,6.25
2022-09-27T21:25:31.336Z,6.25
2022-09-27T21:28:37.536Z,6.23
2022-09-27T21:31:43.237Z,6.22
2022-09-27T21:34:47.045Z,6.17
2022-09-27T21:37:50.916Z,6.20
2022-09-27T21:40:59.469Z,6.16
2022-09-27T21:44:06.749Z,6.13
2022-09-27T21:47:11.889Z,6.17
2022-09-27T21:50:15.808Z,6.20
2022-09-27T21:53:19.543Z,6.23
2022-09-27T21:56:24.888Z,6.21
2022-09-27T21:59:28.492Z,6.24
2022-09-27T22:02:33.516Z,6.21
2022-09-27T22:05:44.160Z,6.29
2022-09-27T22:08:50.081Z,6.23
2022-09-27T22:11:53.735Z,6.24
2022-09-27T22:14:57.322Z,6.29
2022-09-27T22:18:02.394Z,6.29
2022-09-27T22:21:09.238Z,6.27
2022-09-27T22:24:15.623Z,6.31
2022-09-27T22:27:19.188Z,6.32
2022-09-27T22:30:22.764Z,6.30
2022-09-27T22:33:27.684Z,6.32
2022-09-27T22:36:33.527Z,6.30
2022-09-27T22:39:37.027Z,6.29
2022-09-27T22:42:40.792Z,6.28
2022-09-27T22:45:44.341Z,6.29
2022-09-27T22:48:50.116Z,6.29
2022-09-27T22:51:53.851Z,6.29
2022-09-27T22:54:57.483Z,6.32
2022-09-27T22:58:01.095Z,6.26
2022-09-27T23:01:10.150Z,6.28
2022-09-27T23:04:15.319Z,6.21
2022-09-27T23:07:18.959Z,6.20
2022-09-27T23:10:23.474Z,6.12
2022-09-27T23:13:31.759Z,6.10
2022-09-27T23:16:37.116Z,6.08
2022-09-27T23:19:42.485Z,6.04
2022-09-27T23:22:46.105Z,5.97
2022-09-27T23:25:49.956Z,5.95
2022-09-27T23:28:54.752Z,5.95
2022-09-27T23:31:59.732Z,5.92
2022-09-27T23:35:04.992Z,5.83
2022-09-27T23:38:08.597Z,5.82
2022-09-27T23:41:12.687Z,5.80
2022-09-27T23:44:16.618Z,5.77
2022-09-27T23:47:20.229Z,5.71
2022-09-27T23:50:25.187Z,5.65
2022-09-27T23:53:29.366Z,5.60
2022-09-27T23:56:33.016Z,5.54
2022-09-27T23:59:38.472Z,5.48
